createdAt,value
2019-01-11T00:00:17.653Z,5.73
2019-01-11T00:02:51.374Z,5.90
2019-01-11T00:05:23.517Z,6.17
2019-01-11T00:07:55.739Z,6.53
2019-01-11T00:10:27.915Z,5.70
2019-01-11T00:13:00.027Z,6.33
2019-01-11T00:15:33.128Z,6.90
2019-01-11T00:18:05.262Z,7.10
2019-01-11T00:20:37.415Z,6.47
2019-01-11T00:23:10.922Z,6.90
2019-01-11T00:25:43.196Z,7.17
2019-01-11T00:28:15.454Z,6.80
2019-01-11T00:30:47.586Z,7.07
2019-01-11T00:33:19.848Z,6.10
2019-01-11T00:35:51.990Z,6.50
2019-01-11T00:38:24.119Z,6.43
2019-01-11T00:40:56.235Z,6.57
2019-01-11T00:43:29.326Z,6.53
2019-01-11T00:46:01.460Z,6.37
2019-01-11T00:48:33.564Z,6.00
2019-01-11T00:51:05.792Z,5.10
2019-01-11T00:53:37.916Z,5.57
2019-01-11T00:56:10.121Z,5.90
2019-01-11T00:58:42.265Z,5.00
2019-01-11T01:01:14.370Z,5.50
2019-01-11T01:03:46.631Z,4.87
2019-01-11T01:06:18.764Z,5.17
2019-01-11T01:08:50.880Z,5.60
2019-01-11T01:11:23.088Z,4.93
2019-01-11T01:13:55.235Z,4.93
2019-01-11T01:16:27.337Z,4.50
2019-01-11T01:18:59.446Z,5.70
2019-01-11T01:21:31.607Z,4.87
2019-01-11T01:24:04.867Z,5.57
2019-01-11T01:26:37.003Z,5.83
2019-01-11T01:29:09.136Z,5.47
2019-01-11T01:31:41.448Z,6.30
2019-01-11T01:34:13.554Z,6.23
2019-01-11T01:36:45.776Z,5.97
2019-01-11T01:39:17.891Z,6.37
2019-01-11T01:41:50.033Z,5.67
2019-01-11T01:44:22.149Z,5.80
2019-01-11T01:46:54.311Z,5.50
2019-01-11T01:49:27.397Z,6.40
2019-01-11T01:51:59.571Z,5.90
2019-01-11T01:54:31.679Z,5.27
2019-01-11T01:57:03.816Z,4.70
2019-01-11T01:59:35.935Z,4.97
2019-01-11T02:02:08.202Z,5.23
2019-01-11T02:04:40.419Z,5.20
2019-01-11T02:07:12.855Z,4.60
2019-01-11T02:09:45.044Z,5.40
2019-01-11T02:12:17.187Z,4.77
2019-01-11T02:14:49.360Z,5.57
2019-01-11T02:17:21.509Z,5.53
2019-01-11T02:19:53.624Z,5.40
2019-01-11T02:22:25.788Z,5.73
2019-01-11T02:24:58.041Z,4.97
2019-01-11T02:27:30.175Z,4.87
2019-01-11T02:30:02.333Z,3.93
2019-01-11T02:32:34.553Z,4.73
2019-01-11T02:35:06.679Z,4.53
2019-01-11T02:37:38.818Z,4.00
2019-01-11T02:40:10.998Z,3.83
2019-01-11T02:42:43.153Z,4.00
2019-01-11T02:45:18.860Z,4.47
2019-01-11T02:47:51.965Z,4.70
2019-01-11T02:50:24.076Z,3.73
2019-01-11T02:52:56.302Z,4.57
2019-01-11T02:55:28.592Z,4.53
2019-01-11T02:58:00.824Z,3.90
2019-01-11T03:00:32.949Z,4.20
2019-01-11T03:03:05.301Z,4.23
2019-01-11T03:05:37.502Z,4.37
2019-01-11T03:08:09.653Z,4.17
2019-01-11T03:10:41.771Z,5.03
2019-01-11T03:13:13.925Z,4.80
2019-01-11T03:15:47.190Z,4.23
2019-01-11T03:18:19.475Z,4.40
2019-01-11T03:20:51.588Z,5.03
2019-01-11T03:23:23.833Z,5.90
2019-01-11T03:25:55.948Z,6.07
2019-01-11T03:28:28.085Z,6.03
2019-01-11T03:31:03.383Z,6.10
2019-01-11T03:33:35.522Z,5.13
2019-01-11T03:36:07.637Z,5.20
2019-01-11T03:38:39.778Z,6.70
2019-01-11T03:41:11.890Z,5.93
2019-01-11T03:43:44.043Z,6.33
2019-01-11T03:46:16.159Z,5.40
2019-01-11T03:48:48.305Z,5.73
2019-01-11T03:51:20.421Z,4.93
2019-01-11T03:53:52.588Z,5.67
2019-01-11T03:56:24.708Z,5.23
2019-01-11T03:58:56.846Z,5.97
2019-01-11T04:01:29.060Z,6.00
2019-01-11T04:04:01.988Z,5.97
2019-01-11T04:06:34.159Z,6.03
2019-01-11T04:09:10.030Z,5.23
2019-01-11T04:11:42.144Z,5.13
2019-01-11T04:14:14.301Z,5.03
2019-01-11T04:16:46.437Z,4.80
2019-01-11T04:19:18.619Z,6.20
2019-01-11T04:22:09.650Z,5.70
2019-01-11T04:24:57.836Z,5.63
2019-01-11T04:27:29.948Z,6.27
2019-01-11T04:30:02.203Z,5.20
2019-01-11T04:32:34.386Z,4.53
2019-01-11T04:35:07.604Z,5.40
2019-01-11T04:37:40.906Z,5.10
2019-01-11T04:40:15.207Z,5.40
2019-01-11T04:42:47.342Z,4.63
2019-01-11T04:45:19.685Z,5.27
2019-01-11T04:47:51.800Z,5.20
2019-01-11T04:50:25.006Z,5.30
2019-01-11T04:52:57.122Z,5.07
2019-01-11T04:55:29.259Z,4.97
2019-01-11T04:58:01.373Z,5.40
2019-01-11T05:00:33.517Z,5.00
2019-01-11T05:03:05.805Z,5.47
2019-01-11T05:05:37.948Z,6.10
2019-01-11T05:08:10.059Z,5.70
2019-01-11T05:10:42.198Z,6.87
2019-01-11T05:13:32.423Z,5.80
2019-01-11T05:16:04.569Z,5.40
2019-01-11T05:18:36.685Z,5.70
2019-01-11T05:21:08.829Z,5.17
2019-01-11T05:23:40.965Z,6.10
2019-01-11T05:26:13.098Z,6.07
2019-01-11T05:28:45.215Z,5.23
2019-01-11T05:31:17.427Z,5.70
2019-01-11T05:33:49.585Z,5.97
2019-01-11T05:36:21.732Z,6.47
2019-01-11T05:38:53.839Z,6.67
2019-01-11T05:41:25.986Z,6.40
2019-01-11T05:43:58.176Z,6.63
2019-01-11T05:46:30.321Z,6.57
2019-01-11T05:49:02.442Z,7.30
2019-01-11T05:51:34.581Z,7.63
2019-01-11T05:54:06.706Z,6.87
2019-01-11T05:56:39.105Z,6.70
2019-01-11T05:59:11.235Z,7.63
2019-01-11T06:01:43.386Z,7.73
2019-01-11T06:04:49.756Z,6.67
2019-01-11T06:07:52.990Z,6.93
2019-01-11T06:10:25.119Z,7.23
2019-01-11T06:12:57.255Z,6.50
2019-01-11T06:15:29.384Z,6.93
2019-01-11T06:18:01.597Z,6.73
2019-01-11T06:20:33.727Z,6.33
2019-01-11T06:23:05.939Z,7.13
2019-01-11T06:25:38.091Z,6.83
2019-01-11T06:28:10.243Z,6.27
2019-01-11T06:30:42.465Z,7.23
2019-01-11T06:33:14.632Z,8.37
2019-01-11T06:35:46.750Z,7.43
2019-01-11T06:38:18.992Z,8.80
2019-01-11T06:40:51.105Z,7.43
2019-01-11T06:43:23.394Z,9.17
2019-01-11T06:45:55.524Z,8.10
2019-01-11T06:48:38.856Z,8.87
2019-01-11T06:51:11.276Z,9.07
2019-01-11T06:53:43.501Z,9.17
2019-01-11T06:56:15.619Z,9.17
2019-01-11T06:58:47.765Z,8.73
2019-01-11T07:01:19.963Z,9.30
2019-01-11T07:03:52.292Z,9.63
2019-01-11T07:06:24.442Z,10.20
2019-01-11T07:08:56.735Z,13.10
2019-01-11T07:11:28.940Z,11.33
2019-01-11T07:14:01.090Z,11.87
2019-01-11T07:16:33.229Z,13.00
2019-01-11T07:19:05.919Z,12.50
2019-01-11T07:21:38.927Z,13.17
2019-01-11T07:24:11.085Z,12.70
2019-01-11T07:26:43.230Z,15.93
2019-01-11T07:29:18.983Z,18.17
2019-01-11T07:31:51.110Z,14.23
2019-01-11T07:34:23.360Z,18.57
2019-01-11T07:36:56.721Z,19.90
2019-01-11T07:39:32.882Z,18.53
2019-01-11T07:42:05.277Z,12.97
2019-01-11T07:44:37.544Z,14.57
2019-01-11T07:47:09.695Z,14.73
2019-01-11T07:49:41.846Z,12.23
2019-01-11T07:52:13.970Z,12.27
2019-01-11T07:54:46.135Z,16.30
2019-01-11T07:57:18.635Z,11.20
2019-01-11T07:59:50.775Z,13.20
2019-01-11T08:02:22.955Z,14.10
2019-01-11T08:04:55.191Z,13.57
2019-01-11T08:07:27.357Z,12.03
2019-01-11T08:09:59.594Z,11.27
2019-01-11T08:12:31.729Z,12.37
2019-01-11T08:15:04.285Z,11.30
2019-01-11T08:17:36.484Z,10.23
2019-01-11T08:20:08.828Z,11.87
2019-01-11T08:22:41.905Z,12.17
2019-01-11T08:25:14.199Z,12.57
2019-01-11T08:27:46.321Z,12.77
2019-01-11T08:30:18.543Z,13.70
2019-01-11T08:32:50.850Z,13.70
2019-01-11T08:35:23.089Z,11.27
2019-01-11T08:37:55.338Z,13.93
2019-01-11T08:40:27.578Z,13.30
2019-01-11T08:42:59.970Z,12.37
2019-01-11T08:45:32.141Z,14.57
2019-01-11T08:48:04.286Z,13.70
2019-01-11T08:50:36.668Z,13.60
2019-01-11T08:53:08.946Z,13.40
2019-01-11T08:55:41.132Z,14.43
2019-01-11T08:58:13.448Z,14.67
2019-01-11T09:00:46.671Z,14.20
2019-01-11T09:03:20.032Z,14.37
2019-01-11T09:05:53.167Z,14.00
2019-01-11T09:08:25.451Z,14.47
2019-01-11T09:10:57.704Z,14.17
2019-01-11T09:13:31.392Z,13.83
2019-01-11T09:16:03.771Z,13.03
2019-01-11T09:18:54.825Z,13.40
2019-01-11T09:21:26.986Z,12.53
2019-01-11T09:23:59.212Z,12.30
2019-01-11T09:26:31.387Z,11.50
2019-01-11T09:29:03.535Z,10.60
2019-01-11T09:31:35.862Z,10.77
2019-01-11T09:34:08.152Z,11.50
2019-01-11T09:36:40.412Z,11.70
2019-01-11T09:39:12.639Z,12.53
2019-01-11T09:41:44.798Z,10.97
2019-01-11T09:44:16.938Z,11.30
2019-01-11T09:46:49.098Z,10.47
2019-01-11T09:49:21.240Z,10.57
2019-01-11T09:51:53.434Z,9.97
2019-01-11T09:54:25.577Z,9.87
2019-01-11T09:56:57.805Z,9.43
2019-01-11T09:59:35.069Z,10.07
2019-01-11T10:02:22.148Z,10.00
2019-01-11T10:04:54.465Z,8.57
2019-01-11T10:07:28.932Z,7.43
2019-01-11T10:10:01.048Z,7.43
2019-01-11T10:12:33.265Z,6.83
2019-01-11T10:15:07.085Z,8.27
2019-01-11T10:17:39.384Z,11.10
2019-01-11T10:20:12.895Z,9.67
2019-01-11T10:22:45.156Z,11.47
2019-01-11T10:25:17.394Z,11.67
2019-01-11T10:27:49.992Z,11.73
2019-01-11T10:30:23.727Z,10.73
2019-01-11T10:32:55.938Z,9.10
2019-01-11T10:35:28.309Z,7.23
2019-01-11T10:38:00.460Z,8.93
2019-01-11T10:40:32.665Z,7.57
2019-01-11T10:43:04.820Z,7.50
2019-01-11T10:45:37.043Z,6.60
2019-01-11T10:48:09.263Z,8.47
2019-01-11T10:50:41.392Z,8.77
2019-01-11T10:53:13.821Z,9.10
2019-01-11T10:55:46.029Z,10.27
2019-01-11T10:58:18.188Z,10.37
2019-01-11T11:00:50.316Z,10.40
2019-01-11T11:03:22.569Z,9.37
2019-01-11T11:05:55.006Z,11.27
2019-01-11T11:08:27.200Z,10.67
2019-01-11T11:10:59.412Z,10.60
2019-01-11T11:13:31.551Z,11.10
2019-01-11T11:16:03.881Z,11.70
2019-01-11T11:18:36.288Z,10.50
2019-01-11T11:21:08.449Z,11.37
2019-01-11T11:23:40.675Z,11.13
2019-01-11T11:26:12.828Z,10.63
2019-01-11T11:28:44.983Z,11.57
2019-01-11T11:31:17.122Z,11.50
2019-01-11T11:33:50.835Z,11.63
2019-01-11T11:36:26.072Z,11.43
2019-01-11T11:38:58.385Z,13.87
2019-01-11T11:41:30.588Z,14.27
2019-01-11T11:44:02.784Z,14.97
2019-01-11T11:46:36.303Z,12.53
2019-01-11T11:49:08.528Z,13.40
2019-01-11T11:51:41.411Z,13.00
2019-01-11T11:54:13.955Z,12.80
2019-01-11T11:56:47.291Z,11.50
2019-01-11T11:59:19.526Z,12.87
2019-01-11T12:01:52.494Z,10.47
2019-01-11T12:04:24.716Z,10.97
2019-01-11T12:06:56.986Z,10.97
2019-01-11T12:09:29.167Z,12.03
2019-01-11T12:12:01.297Z,13.53
2019-01-11T12:14:33.461Z,12.13
2019-01-11T12:17:05.685Z,12.23
2019-01-11T12:19:37.851Z,11.37
2019-01-11T12:22:21.965Z,10.77
2019-01-11T12:24:54.472Z,11.53
2019-01-11T12:27:26.778Z,11.87
2019-01-11T12:29:58.944Z,12.20
2019-01-11T12:32:31.282Z,12.30
2019-01-11T12:35:03.440Z,13.43
2019-01-11T12:37:35.671Z,12.43
2019-01-11T12:40:10.084Z,11.03
2019-01-11T12:42:42.245Z,11.83
2019-01-11T12:45:15.382Z,13.07
2019-01-11T12:47:47.517Z,13.83
2019-01-11T12:50:27.574Z,13.20
2019-01-11T12:52:59.724Z,15.57
2019-01-11T12:55:31.940Z,14.10
2019-01-11T12:58:04.172Z,12.87
2019-01-11T13:00:36.337Z,15.93
2019-01-11T13:03:08.470Z,11.03
2019-01-11T13:05:40.705Z,12.53
2019-01-11T13:08:12.951Z,12.63
2019-01-11T13:10:46.089Z,12.03
2019-01-11T13:13:18.234Z,11.80
2019-01-11T13:15:50.430Z,12.87
2019-01-11T13:18:22.568Z,13.60
2019-01-11T13:20:54.721Z,14.97
2019-01-11T13:23:27.261Z,13.60
2019-01-11T13:25:59.449Z,13.30
2019-01-11T13:28:31.655Z,11.80
2019-01-11T13:31:03.884Z,10.90
2019-01-11T13:33:36.182Z,11.00
2019-01-11T13:36:12.361Z,12.07
2019-01-11T13:38:44.520Z,10.73
2019-01-11T13:41:16.788Z,10.83
2019-01-11T13:43:49.172Z,10.80
2019-01-11T13:46:21.327Z,11.53
2019-01-11T13:48:53.536Z,11.20
2019-01-11T13:51:25.699Z,12.27
2019-01-11T13:53:57.937Z,12.67
2019-01-11T13:56:30.162Z,10.03
2019-01-11T13:59:02.327Z,10.50
2019-01-11T14:01:34.561Z,10.83
2019-01-11T14:04:06.778Z,11.43
2019-01-11T14:06:38.978Z,12.57
2019-01-11T14:09:11.356Z,15.87
2019-01-11T14:11:43.485Z,26.50
2019-01-11T14:14:15.733Z,16.23
2019-01-11T14:16:48.020Z,11.67
2019-01-11T14:19:20.177Z,10.30
2019-01-11T14:21:52.372Z,10.83
2019-01-11T14:24:24.550Z,11.00
2019-01-11T14:26:56.710Z,9.97
2019-01-11T14:29:28.943Z,10.53
2019-01-11T14:32:01.081Z,10.40
2019-01-11T14:34:33.411Z,10.57
2019-01-11T14:37:05.560Z,12.67
2019-01-11T14:39:37.783Z,10.77
2019-01-11T14:42:09.978Z,10.70
2019-01-11T14:44:42.201Z,9.80
2019-01-11T14:47:14.339Z,11.93
2019-01-11T14:49:46.535Z,9.80
2019-01-11T14:52:20.541Z,11.10
2019-01-11T14:54:52.505Z,10.57
2019-01-11T14:57:24.644Z,11.33
2019-01-11T14:59:56.792Z,9.37
2019-01-11T15:02:28.922Z,10.60
2019-01-11T15:05:01.311Z,10.43
2019-01-11T15:07:33.507Z,9.37
2019-01-11T15:10:07.464Z,11.77
2019-01-11T15:12:39.685Z,11.27
2019-01-11T15:15:11.917Z,18.63
2019-01-11T15:17:44.072Z,14.10
2019-01-11T15:20:18.988Z,13.50
2019-01-11T15:22:51.191Z,22.30
2019-01-11T15:25:23.366Z,17.70
2019-01-11T15:27:56.763Z,30.20
2019-01-11T15:30:28.954Z,18.77
2019-01-11T15:33:01.102Z,12.90
2019-01-11T15:35:33.475Z,10.93
2019-01-11T15:38:06.011Z,15.43
2019-01-11T15:40:38.413Z,10.70
2019-01-11T15:43:10.652Z,10.63
2019-01-11T15:45:42.801Z,10.50
2019-01-11T15:48:19.928Z,9.97
2019-01-11T15:50:59.021Z,10.50
2019-01-11T15:53:38.990Z,10.07
2019-01-11T15:56:13.079Z,11.97
2019-01-11T15:58:45.199Z,10.30
2019-01-11T16:01:17.349Z,11.03
2019-01-11T16:03:49.851Z,10.97
2019-01-11T16:06:36.429Z,11.53
2019-01-11T16:09:56.207Z,14.93
2019-01-11T16:13:24.391Z,9.33
2019-01-11T16:16:34.148Z,9.77
2019-01-11T16:19:07.221Z,11.60
2019-01-11T16:21:39.450Z,10.47
2019-01-11T16:24:11.587Z,10.70
2019-01-11T16:26:43.767Z,11.17
2019-01-11T16:29:15.897Z,10.23
2019-01-11T16:31:48.051Z,11.47
2019-01-11T16:34:20.187Z,12.33
2019-01-11T16:36:53.911Z,11.57
2019-01-11T16:39:26.052Z,14.20
2019-01-11T16:41:58.202Z,11.97
2019-01-11T16:44:30.324Z,12.10
2019-01-11T16:47:02.484Z,12.27
2019-01-11T16:49:34.718Z,14.43
2019-01-11T16:52:06.881Z,13.23
2019-01-11T16:54:39.003Z,11.50
2019-01-11T16:57:11.176Z,14.03
2019-01-11T16:59:43.310Z,13.90
2019-01-11T17:02:15.464Z,14.13
2019-01-11T17:04:47.607Z,12.87
2019-01-11T17:07:19.778Z,14.13
2019-01-11T17:09:51.984Z,15.37
2019-01-11T17:12:24.211Z,15.60
2019-01-11T17:14:56.343Z,19.43
2019-01-11T17:17:28.585Z,13.20
2019-01-11T17:20:00.715Z,12.20
2019-01-11T17:22:32.874Z,17.03
2019-01-11T17:25:05.621Z,13.47
2019-01-11T17:27:37.816Z,15.47
2019-01-11T17:30:18.525Z,13.87
2019-01-11T17:32:50.687Z,14.27
2019-01-11T17:35:22.892Z,12.67
2019-01-11T17:37:55.108Z,12.33
2019-01-11T17:40:27.242Z,11.40
2019-01-11T17:42:59.560Z,11.93
2019-01-11T17:45:31.793Z,11.50
2019-01-11T17:48:04.067Z,12.30
2019-01-11T17:50:36.336Z,11.73
2019-01-11T17:53:08.578Z,11.37
2019-01-11T17:55:40.782Z,12.10
2019-01-11T17:58:13.170Z,12.90
2019-01-11T18:00:45.339Z,13.33
2019-01-11T18:03:17.531Z,14.07
2019-01-11T18:05:49.670Z,11.27
2019-01-11T18:08:21.845Z,13.63
2019-01-11T18:10:53.972Z,13.47
2019-01-11T18:13:26.146Z,11.57
2019-01-11T18:15:58.386Z,10.40
2019-01-11T18:18:30.666Z,10.37
2019-01-11T18:21:02.872Z,9.87
2019-01-11T18:23:35.263Z,10.77
2019-01-11T18:26:07.441Z,11.17
2019-01-11T18:28:39.643Z,12.73
2019-01-11T18:31:11.811Z,15.00
2019-01-11T18:33:43.975Z,12.77
2019-01-11T18:36:16.205Z,12.63
2019-01-11T18:38:48.370Z,12.00
2019-01-11T18:41:20.635Z,12.50
2019-01-11T18:43:52.819Z,17.07
2019-01-11T18:46:25.233Z,16.97
2019-01-11T18:48:57.532Z,14.73
2019-01-11T18:51:29.782Z,11.33
2019-01-11T18:54:03.196Z,9.90
2019-01-11T18:56:35.452Z,9.87
2019-01-11T18:59:07.747Z,11.27
2019-01-11T19:01:39.963Z,15.23
2019-01-11T19:04:12.355Z,10.60
2019-01-11T19:06:44.633Z,8.80
2019-01-11T19:09:16.856Z,9.67
2019-01-11T19:11:49.119Z,9.20
2019-01-11T19:14:21.349Z,10.27
2019-01-11T19:16:53.726Z,8.40
2019-01-11T19:19:25.890Z,9.67
2019-01-11T19:21:58.485Z,13.20
2019-01-11T19:24:30.844Z,10.00
2019-01-11T19:27:03.152Z,9.53
2019-01-11T19:29:35.472Z,10.03
2019-01-11T19:32:07.777Z,9.73
2019-01-11T19:34:40.025Z,9.90
2019-01-11T19:37:12.310Z,8.37
2019-01-11T19:39:44.574Z,8.87
2019-01-11T19:42:16.825Z,8.60
2019-01-11T19:44:49.121Z,9.87
2019-01-11T19:47:21.312Z,8.47
2019-01-11T19:49:53.545Z,9.03
2019-01-11T19:52:25.794Z,8.83
2019-01-11T19:54:58.039Z,12.33
2019-01-11T19:57:30.223Z,9.23
2019-01-11T20:00:02.602Z,9.60
2019-01-11T20:02:35.142Z,9.40
2019-01-11T20:05:07.484Z,10.60
2019-01-11T20:07:39.714Z,10.17
2019-01-11T20:10:16.440Z,9.80
2019-01-11T20:12:48.625Z,11.73
2019-01-11T20:15:21.003Z,10.77
2019-01-11T20:17:53.329Z,10.73
2019-01-11T20:20:26.518Z,9.13
2019-01-11T20:23:02.356Z,8.33
2019-01-11T20:25:32.878Z,8.70
2019-01-11T20:28:05.085Z,9.27
2019-01-11T20:30:37.283Z,10.03
2019-01-11T20:33:09.450Z,8.87
2019-01-11T20:35:41.650Z,9.10
2019-01-11T20:38:13.792Z,9.57
2019-01-11T20:40:45.990Z,8.83
2019-01-11T20:43:18.192Z,7.97
2019-01-11T20:45:50.355Z,8.53
2019-01-11T20:48:22.504Z,8.30
2019-01-11T20:50:54.877Z,12.03
2019-01-11T20:53:27.206Z,10.40
2019-01-11T20:55:59.490Z,9.93
2019-01-11T20:58:31.630Z,8.33
2019-01-11T21:01:05.328Z,8.87
2019-01-11T21:03:37.468Z,9.73
2019-01-11T21:06:09.593Z,9.77
2019-01-11T21:08:41.921Z,8.80
2019-01-11T21:11:14.048Z,8.60
2019-01-11T21:13:46.194Z,7.60
2019-01-11T21:16:18.385Z,8.17
2019-01-11T21:18:53.868Z,8.60
2019-01-11T21:21:25.965Z,8.43
2019-01-11T21:23:58.126Z,9.80
2019-01-11T21:26:30.275Z,8.73
2019-01-11T21:29:02.554Z,9.50
2019-01-11T21:31:34.753Z,10.27
2019-01-11T21:34:06.899Z,9.20
2019-01-11T21:36:39.024Z,9.37
2019-01-11T21:39:11.182Z,8.63
2019-01-11T21:41:43.297Z,8.47
2019-01-11T21:44:15.474Z,9.33
2019-01-11T21:46:47.602Z,8.30
2019-01-11T21:49:19.785Z,8.17
2019-01-11T21:51:51.915Z,8.13
2019-01-11T21:54:24.089Z,8.13
2019-01-11T21:56:56.209Z,7.63
2019-01-11T21:59:28.565Z,8.17
2019-01-11T22:02:00.720Z,9.40
2019-01-11T22:04:32.870Z,10.60
2019-01-11T22:07:05.102Z,9.50
2019-01-11T22:09:37.261Z,9.93
2019-01-11T22:12:09.395Z,9.73
2019-01-11T22:14:41.685Z,11.07
2019-01-11T22:17:14.048Z,10.23
2019-01-11T22:19:46.194Z,11.07
2019-01-11T22:22:18.320Z,9.53
2019-01-11T22:24:50.499Z,8.53
2019-01-11T22:27:22.635Z,8.57
2019-01-11T22:29:54.908Z,7.83
2019-01-11T22:32:28.185Z,8.87
2019-01-11T22:35:00.453Z,10.03
2019-01-11T22:37:32.579Z,9.67
2019-01-11T22:40:05.645Z,9.20
2019-01-11T22:42:37.768Z,8.93
2019-01-11T22:45:14.774Z,9.03
2019-01-11T22:47:46.904Z,10.77
2019-01-11T22:50:19.122Z,9.53
2019-01-11T22:52:52.410Z,9.30
2019-01-11T22:55:24.873Z,9.37
2019-01-11T22:57:57.069Z,9.57
2019-01-11T23:00:44.707Z,10.07
2019-01-11T23:03:29.339Z,9.43
2019-01-11T23:07:07.316Z,9.37
2019-01-11T23:10:12.061Z,9.73
2019-01-11T23:13:02.840Z,10.23
2019-01-11T23:15:42.055Z,8.90
2019-01-11T23:18:20.661Z,9.53
2019-01-11T23:20:57.709Z,8.70
2019-01-11T23:23:29.867Z,10.37
2019-01-11T23:26:02.020Z,9.10
2019-01-11T23:28:34.248Z,9.00
2019-01-11T23:31:06.366Z,8.30
2019-01-11T23:33:38.581Z,9.80
2019-01-11T23:36:10.713Z,8.40
2019-01-11T23:38:43.043Z,10.03
2019-01-11T23:41:15.233Z,9.17
2019-01-11T23:43:47.541Z,7.83
2019-01-11T23:46:19.665Z,7.67
2019-01-11T23:48:51.875Z,9.63
2019-01-11T23:51:24.008Z,8.23
2019-01-11T23:53:56.158Z,9.33
2019-01-11T23:56:28.344Z,8.77
2019-01-11T23:59:00.493Z,8.03
